Time;durP1;ratioP1;P1;durP2;ratioP2;P2;SDS_P1;SDS_P2;PMS_P1;PMS_P2;Temp;Humidity;BMP_temperature;BMP_pressure;BME280_temperature;BME280_humidity;BME280_pressure;Samples;Min_cycle;Max_cycle;Signal;HPM_P1;HPM_P2
2023/08/17 00:01:43;;;;;;;22.23;17.87;;;18.00;99.90;;;;;;4997942;28;20410;-74
2023/08/17 00:04:08;;;;;;;23.33;17.80;;;18.00;99.90;;;;;;4979693;28;20392;-76
2023/08/17 00:06:35;;;;;;;23.27;18.40;;;18.00;99.90;;;;;;4997841;28;20426;-76
2023/08/17 00:09:01;;;;;;;23.30;17.70;;;18.10;99.90;;;;;;4998782;28;20390;-74
2023/08/17 00:11:26;;;;;;;23.03;18.37;;;18.10;99.90;;;;;;4998365;28;20390;-74
2023/08/17 00:13:52;;;;;;;20.38;18.13;;;18.10;99.90;;;;;;5000331;28;20401;-75
2023/08/17 00:16:18;;;;;;;21.97;19.67;;;18.10;99.90;;;;;;4982497;28;20409;-74
2023/08/17 00:18:43;;;;;;;23.00;18.00;;;18.20;99.90;;;;;;5000159;28;20418;-74
2023/08/17 00:21:09;;;;;;;22.67;19.67;;;18.20;99.90;;;;;;4999944;28;20414;-74
2023/08/17 00:23:35;;;;;;;22.80;20.45;;;18.10;99.90;;;;;;4999328;28;20394;-75
2023/08/17 00:26:01;;;;;;;23.15;20.75;;;18.10;99.90;;;;;;4997855;28;20727;-74
2023/08/17 00:28:26;;;;;;;26.85;22.50;;;18.10;99.90;;;;;;4998226;28;20386;-75
2023/08/17 00:30:53;;;;;;;27.88;21.15;;;18.00;99.90;;;;;;4998424;28;20483;-74
2023/08/17 00:33:18;;;;;;;23.15;20.42;;;18.10;99.90;;;;;;4998860;28;20387;-75
2023/08/17 00:35:45;;;;;;;25.35;20.50;;;18.10;99.90;;;;;;4999885;28;20409;-74
2023/08/17 00:38:11;;;;;;;24.42;21.02;;;18.10;99.90;;;;;;4999903;28;20434;-74
2023/08/17 00:40:37;;;;;;;23.90;21.27;;;18.10;99.90;;;;;;5000216;28;20414;-73
2023/08/17 00:43:05;;;;;;;22.52;20.00;;;18.20;99.90;;;;;;5000345;28;20386;-74
2023/08/17 00:45:31;;;;;;;23.17;19.20;;;18.20;99.90;;;;;;4999960;28;20383;-74
2023/08/17 00:47:58;;;;;;;24.90;19.77;;;18.20;99.90;;;;;;5000415;28;20394;-74
2023/08/17 00:50:24;;;;;;;19.80;17.70;;;18.20;99.90;;;;;;4999998;28;20413;-75
2023/08/17 00:52:52;;;;;;;24.98;17.88;;;18.20;99.90;;;;;;4998919;28;20565;-73
2023/08/17 00:55:18;;;;;;;18.98;16.50;;;18.20;99.90;;;;;;4998885;28;20442;-77
2023/08/17 00:57:43;;;;;;;19.33;15.65;;;18.20;99.90;;;;;;4999211;28;20422;-75
2023/08/17 01:00:12;;;;;;;23.38;15.50;;;18.20;99.90;;;;;;4999423;28;20406;-73
2023/08/17 01:02:42;;;;;;;18.02;14.25;;;18.20;99.90;;;;;;4998945;28;20417;-75
2023/08/17 01:05:08;;;;;;;15.32;13.00;;;18.20;99.90;;;;;;4999659;28;20477;-74
2023/08/17 01:07:33;;;;;;;14.20;12.70;;;18.20;99.90;;;;;;4999047;28;20417;-74
2023/08/17 01:10:01;;;;;;;17.58;12.65;;;18.20;99.90;;;;;;4999586;28;20390;-75
2023/08/17 01:12:32;;;;;;;16.45;12.00;;;18.20;99.90;;;;;;4981832;28;20401;-73
2023/08/17 01:15:12;;;;;;;15.10;11.77;;;18.30;99.90;;;;;;4998417;28;20398;-74
2023/08/17 01:17:51;;;;;;;17.60;11.53;;;18.30;99.90;;;;;;4998330;28;20481;-74
2023/08/17 01:20:18;;;;;;;19.95;11.95;;;18.20;99.90;;;;;;4982311;28;20402;-74
2023/08/17 01:22:48;;;;;;;15.98;10.25;;;18.20;99.90;;;;;;4999020;28;20473;-75
2023/08/17 01:25:13;;;;;;;13.45;10.00;;;18.30;99.90;;;;;;4997995;28;20398;-75
2023/08/17 01:27:44;;;;;;;14.75;10.90;;;18.30;99.90;;;;;;4998222;28;20394;-73
2023/08/17 01:30:14;;;;;;;12.90;10.90;;;18.20;99.90;;;;;;4997720;28;20414;-75
2023/08/17 01:33:03;;;;;;;16.95;10.90;;;18.20;99.90;;;;;;4998078;28;20410;-75
2023/08/17 01:35:32;;;;;;;18.65;10.90;;;18.40;99.90;;;;;;4997914;28;20467;-75
2023/08/17 01:38:03;;;;;;;11.90;9.87;;;18.30;99.90;;;;;;4998484;28;20566;-74
2023/08/17 01:40:32;;;;;;;13.15;9.63;;;18.30;99.90;;;;;;4998146;28;20409;-74
2023/08/17 01:42:58;;;;;;;14.27;9.38;;;18.30;99.90;;;;;;4998717;28;20390;-74
2023/08/17 01:45:24;;;;;;;17.00;11.00;;;18.30;99.90;;;;;;4997630;28;20386;-74
2023/08/17 01:47:49;;;;;;;13.35;10.40;;;18.30;99.90;;;;;;4980322;28;20445;-73
2023/08/17 01:50:15;;;;;;;16.35;10.70;;;18.20;99.90;;;;;;4997519;28;20398;-74
2023/08/17 01:52:40;;;;;;;16.00;10.90;;;18.10;99.90;;;;;;4980547;28;20395;-75
2023/08/17 01:55:06;;;;;;;13.37;10.37;;;18.20;99.90;;;;;;4982260;28;20399;-73
2023/08/17 01:57:32;;;;;;;13.50;11.00;;;18.20;99.90;;;;;;4999723;28;20410;-76
2023/08/17 01:59:57;;;;;;;14.80;11.57;;;18.10;99.90;;;;;;4981597;28;20906;-74
2023/08/17 02:02:23;;;;;;;14.23;10.73;;;18.00;99.90;;;;;;4998619;28;20911;-75
2023/08/17 02:04:49;;;;;;;14.77;11.20;;;18.10;99.90;;;;;;4997908;28;20390;-74
2023/08/17 02:07:14;;;;;;;18.52;11.45;;;18.20;99.90;;;;;;4998796;28;20419;-74
2023/08/17 02:09:40;;;;;;;16.13;11.30;;;18.00;99.90;;;;;;5003260;28;20378;-73
2023/08/17 02:12:06;;;;;;;12.77;10.87;;;17.90;99.90;;;;;;5003385;28;20413;-74
2023/08/17 02:14:31;;;;;;;15.93;10.50;;;18.00;99.90;;;;;;5002639;28;20390;-75
2023/08/17 02:16:57;;;;;;;15.80;10.80;;;18.10;99.90;;;;;;5002744;28;20402;-74
2023/08/17 02:19:22;;;;;;;14.27;10.50;;;18.10;99.90;;;;;;4985366;28;20397;-74
2023/08/17 02:21:48;;;;;;;16.10;10.50;;;18.00;99.90;;;;;;5002871;28;20414;-75
2023/08/17 02:24:13;;;;;;;13.50;10.45;;;18.00;99.90;;;;;;5003568;28;20394;-74
2023/08/17 02:26:40;;;;;;;11.47;10.23;;;18.00;99.90;;;;;;5003483;28;20417;-75
2023/08/17 02:29:05;;;;;;;15.20;11.60;;;18.00;99.90;;;;;;5002683;28;20867;-73
2023/08/17 02:31:31;;;;;;;16.03;10.70;;;18.00;99.90;;;;;;5002752;28;20398;-74
2023/08/17 02:34:04;;;;;;;14.17;10.80;;;18.00;99.90;;;;;;5003574;28;20397;-73
2023/08/17 02:36:30;;;;;;;14.13;11.02;;;18.00;99.90;;;;;;5002983;28;20391;-73
2023/08/17 02:38:56;;;;;;;15.80;10.00;;;18.00;99.90;;;;;;5002504;28;20420;-75
2023/08/17 02:41:21;;;;;;;15.53;10.77;;;18.00;99.90;;;;;;4985128;28;20500;-74
2023/08/17 02:43:47;;;;;;;14.00;10.07;;;18.00;99.90;;;;;;5002709;28;20401;-72
2023/08/17 02:46:13;;;;;;;15.95;11.20;;;18.10;99.90;;;;;;5001943;28;20390;-73
2023/08/17 02:48:38;;;;;;;12.43;10.33;;;18.00;99.90;;;;;;5001551;28;20390;-74
2023/08/17 02:51:04;;;;;;;16.03;11.13;;;18.00;99.90;;;;;;5001961;28;20893;-74
2023/08/17 02:53:29;;;;;;;14.82;10.73;;;18.10;99.90;;;;;;5002269;28;20925;-75
2023/08/17 02:55:55;;;;;;;15.67;9.80;;;18.10;99.90;;;;;;5003031;28;20418;-73
2023/08/17 02:58:21;;;;;;;16.83;10.93;;;18.10;99.90;;;;;;4984883;28;20441;-76
2023/08/17 03:00:46;;;;;;;15.82;10.38;;;18.00;99.90;;;;;;5001980;28;20947;-76
2023/08/17 03:03:12;;;;;;;15.60;11.50;;;18.00;99.90;;;;;;4984570;28;20405;-73
2023/08/17 03:05:37;;;;;;;16.83;11.90;;;18.00;99.90;;;;;;5002771;28;20413;-73
2023/08/17 03:08:03;;;;;;;19.43;12.50;;;17.90;99.90;;;;;;5002429;28;20390;-74
2023/08/17 03:10:29;;;;;;;17.90;12.90;;;17.90;99.90;;;;;;5001617;28;20394;-73
2023/08/17 03:12:55;;;;;;;20.35;13.50;;;17.90;99.90;;;;;;5000519;28;20402;-74
2023/08/17 03:15:20;;;;;;;19.70;13.38;;;17.80;99.90;;;;;;5018089;22;20411;-72
2023/08/17 03:17:46;;;;;;;21.40;13.77;;;17.80;99.90;;;;;;5045203;28;20399;-74
2023/08/17 03:20:12;;;;;;;22.33;14.57;;;17.80;99.90;;;;;;5045057;28;20407;-74
2023/08/17 03:22:37;;;;;;;20.92;14.30;;;17.80;99.90;;;;;;5044707;28;20397;-74
2023/08/17 03:25:03;;;;;;;18.02;12.93;;;17.90;99.60;;;;;;5045501;28;20383;-73
2023/08/17 03:27:29;;;;;;;16.30;11.93;;;17.80;99.90;;;;;;5042392;28;20383;-74
2023/08/17 03:29:54;;;;;;;21.73;12.53;;;17.80;99.90;;;;;;5044302;28;20415;-73
2023/08/17 03:32:20;;;;;;;19.50;12.40;;;17.80;99.40;;;;;;5040073;28;20410;-73
2023/08/17 03:34:46;;;;;;;18.67;11.20;;;17.80;99.90;;;;;;5033808;28;20759;-73
2023/08/17 03:37:11;;;;;;;14.00;11.43;;;17.80;99.90;;;;;;5034079;28;20433;-73
2023/08/17 03:39:37;;;;;;;16.40;11.70;;;17.80;99.30;;;;;;5034892;28;20438;-73
2023/08/17 03:42:02;;;;;;;20.20;12.80;;;17.70;99.00;;;;;;5044113;28;20399;-74
2023/08/17 03:44:28;;;;;;;19.73;12.32;;;17.70;99.90;;;;;;5037792;28;20425;-76
2023/08/17 03:46:53;;;;;;;17.40;11.97;;;17.80;99.00;;;;;;5035706;28;20391;-74
2023/08/17 03:49:19;;;;;;;20.00;11.70;;;17.80;97.10;;;;;;5043183;28;20395;-74
2023/08/17 03:51:45;;;;;;;16.40;11.90;;;17.70;98.20;;;;;;5041707;28;20402;-74
2023/08/17 03:54:12;;;;;;;18.27;11.30;;;17.80;99.90;;;;;;5037092;28;20379;-74
2023/08/17 03:56:37;;;;;;;18.35;12.13;;;17.80;99.60;;;;;;5040994;28;20801;-74
2023/08/17 03:59:03;;;;;;;22.50;12.33;;;17.80;97.10;;;;;;5039642;28;20411;-75
2023/08/17 04:01:29;;;;;;;20.07;12.87;;;17.80;97.90;;;;;;5032407;28;20461;-74
2023/08/17 04:03:55;;;;;;;21.00;12.97;;;17.80;98.70;;;;;;5032287;28;20395;-74
2023/08/17 04:06:20;;;;;;;20.60;13.38;;;17.80;95.10;;;;;;5032716;28;20389;-74
2023/08/17 04:08:46;;;;;;;18.17;13.00;;;17.90;96.50;;;;;;5032215;28;20787;-74
2023/08/17 04:11:12;;;;;;;20.50;13.38;;;17.90;94.40;;;;;;5031885;28;20387;-74
2023/08/17 04:13:37;;;;;;;17.43;13.33;;;17.90;96.20;;;;;;5032110;28;20399;-74
2023/08/17 04:16:03;;;;;;;18.92;12.98;;;17.90;95.70;;;;;;5031939;28;20405;-74
2023/08/17 04:18:29;;;;;;;21.83;14.50;;;17.90;96.40;;;;;;5032116;28;20383;-74
2023/08/17 04:20:54;;;;;;;19.45;14.20;;;17.90;96.00;;;;;;5031878;28;20406;-74
2023/08/17 04:23:20;;;;;;;23.40;14.80;;;17.90;95.80;;;;;;5032839;28;20430;-74
2023/08/17 04:25:47;;;;;;;21.37;15.17;;;17.80;99.60;;;;;;5031702;28;20395;-75
2023/08/17 04:28:13;;;;;;;24.80;15.70;;;17.90;97.00;;;;;;5031891;28;20387;-74
2023/08/17 04:30:38;;;;;;;24.43;16.70;;;17.90;98.10;;;;;;5030637;28;20914;-75
2023/08/17 04:33:04;;;;;;;20.70;15.93;;;18.00;95.40;;;;;;5013786;28;20443;-75
2023/08/17 04:35:30;;;;;;;29.67;17.13;;;18.00;97.50;;;;;;5031266;28;20391;-74
2023/08/17 04:37:56;;;;;;;25.52;17.60;;;18.00;95.30;;;;;;5031659;28;20393;-74
2023/08/17 04:40:21;;;;;;;27.50;18.02;;;18.00;96.00;;;;;;5031665;28;20411;-74
2023/08/17 04:42:47;;;;;;;30.93;18.93;;;18.00;97.60;;;;;;5031308;28;20486;-73
2023/08/17 04:45:13;;;;;;;29.77;19.13;;;18.00;97.60;;;;;;5031677;28;20395;-73
2023/08/17 04:47:39;;;;;;;29.30;19.10;;;18.00;94.80;;;;;;5031543;28;20462;-74
2023/08/17 04:50:05;;;;;;;28.83;17.92;;;18.10;92.40;;;;;;5031415;28;20798;-73
2023/08/17 04:52:31;;;;;;;24.80;19.20;;;18.20;87.50;;;;;;5031013;28;20448;-73
2023/08/17 04:54:57;;;;;;;28.75;19.48;;;18.20;89.00;;;;;;5031276;28;20384;-73
2023/08/17 04:57:23;;;;;;;25.48;18.80;;;18.20;91.50;;;;;;5031556;28;20379;-74
2023/08/17 04:59:48;;;;;;;29.67;18.80;;;18.20;92.30;;;;;;5013855;28;20965;-74
2023/08/17 05:02:14;;;;;;;29.53;20.83;;;18.30;86.30;;;;;;5031351;28;20395;-75
2023/08/17 05:04:39;;;;;;;96.82;69.85;;;18.30;89.60;;;;;;5030802;28;20398;-75
2023/08/17 05:07:05;;;;;;;41.20;31.25;;;18.30;94.10;;;;;;5031079;28;20458;-74
2023/08/17 05:09:31;;;;;;;44.45;29.85;;;18.30;94.00;;;;;;5032481;28;20403;-75
2023/08/17 05:11:57;;;;;;;33.53;22.00;;;18.30;94.30;;;;;;5030833;28;20390;-74
2023/08/17 05:14:22;;;;;;;29.80;20.20;;;18.40;91.60;;;;;;5030817;28;20391;-74
2023/08/17 05:16:48;;;;;;;29.52;17.55;;;18.60;84.50;;;;;;5031279;28;20403;-73
2023/08/17 05:19:13;;;;;;;31.48;19.70;;;18.60;81.70;;;;;;5030935;28;20411;-74
2023/08/17 05:21:39;;;;;;;28.37;19.00;;;18.60;81.10;;;;;;5030501;28;20409;-75
2023/08/17 05:24:05;;;;;;;30.42;18.50;;;18.70;80.10;;;;;;5031281;28;20458;-74
2023/08/17 05:26:34;;;;;;;27.05;18.77;;;18.80;78.30;;;;;;5030399;28;20415;-74
2023/08/17 05:28:59;;;;;;;32.78;20.90;;;18.60;81.60;;;;;;5012786;28;20395;-74
2023/08/17 05:31:25;;;;;;;32.72;20.20;;;18.60;83.20;;;;;;5029373;28;20417;-74
2023/08/17 05:33:51;;;;;;;27.73;20.60;;;18.70;80.90;;;;;;5029254;28;20887;-74
2023/08/17 05:36:17;;;;;;;27.70;19.40;;;18.80;79.00;;;;;;5030594;28;20386;-74
2023/08/17 05:38:42;;;;;;;34.10;20.80;;;18.80;78.20;;;;;;5030454;28;20387;-74
2023/08/17 05:41:08;;;;;;;38.38;21.13;;;18.90;78.20;;;;;;5033537;28;20887;-74
2023/08/17 05:43:33;;;;;;;32.05;21.30;;;18.80;77.70;;;;;;5039479;28;20443;-74
2023/08/17 05:45:59;;;;;;;32.27;21.37;;;18.70;79.90;;;;;;5040209;28;20394;-74
2023/08/17 05:48:25;;;;;;;34.50;23.00;;;18.70;77.80;;;;;;5040639;28;20489;-73
2023/08/17 05:50:50;;;;;;;34.33;23.63;;;18.80;77.70;;;;;;5032842;28;20388;-74
2023/08/17 05:53:16;;;;;;;26.97;20.97;;;18.70;80.10;;;;;;5031949;28;20387;-74
2023/08/17 05:55:41;;;;;;;30.47;21.67;;;18.80;78.80;;;;;;5030908;28;20438;-74
2023/08/17 05:58:07;;;;;;;32.40;21.25;;;18.80;78.70;;;;;;5030790;28;20383;-74
2023/08/17 06:00:36;;;;;;;30.90;21.10;;;18.90;75.10;;;;;;5030845;28;20429;-76
2023/08/17 06:03:02;;;;;;;33.67;23.73;;;19.00;75.20;;;;;;5012874;28;20394;-74
2023/08/17 06:05:31;;;;;;;28.07;20.93;;;18.90;77.00;;;;;;5030294;28;20383;-73
2023/08/17 06:07:56;;;;;;;41.75;24.80;;;19.00;73.90;;;;;;5030963;28;20851;-75
2023/08/17 06:10:25;;;;;;;29.20;20.17;;;19.00;77.50;;;;;;5030219;28;20470;-75
2023/08/17 06:12:53;;;;;;;26.75;19.77;;;19.20;70.10;;;;;;5030028;28;20379;-74
2023/08/17 06:15:19;;;;;;;32.08;20.05;;;19.30;70.20;;;;;;5029551;28;20402;-73
2023/08/17 06:17:44;;;;;;;31.73;20.75;;;19.40;68.60;;;;;;5030449;28;20406;-74
2023/08/17 06:20:11;;;;;;;29.30;20.63;;;19.40;70.50;;;;;;5030055;28;20537;-74
2023/08/17 06:22:37;;;;;;;40.05;22.38;;;19.30;73.20;;;;;;5029905;28;20383;-75
2023/08/17 06:25:04;;;;;;;32.80;21.13;;;19.40;69.10;;;;;;5029729;28;20376;-74
2023/08/17 06:27:30;;;;;;;27.80;19.95;;;19.40;69.30;;;;;;5029832;28;20829;-74
2023/08/17 06:29:56;;;;;;;28.90;20.13;;;19.40;68.00;;;;;;5029758;28;20438;-74
2023/08/17 06:32:21;;;;;;;25.35;19.67;;;19.40;69.00;;;;;;5030358;28;20852;-74
2023/08/17 06:34:47;;;;;;;31.00;20.70;;;19.40;70.10;;;;;;5030347;28;20829;-74
2023/08/17 06:37:13;;;;;;;30.00;19.30;;;19.20;68.60;;;;;;5029847;28;20927;-74
2023/08/17 06:39:38;;;;;;;31.08;19.13;;;19.00;71.70;;;;;;5029339;28;20397;-74
2023/08/17 06:42:04;;;;;;;26.40;19.93;;;19.10;74.20;;;;;;5011489;28;20441;-74
2023/08/17 06:44:30;;;;;;;27.37;19.20;;;19.00;74.50;;;;;;5022315;28;20451;-72
2023/08/17 06:46:56;;;;;;;28.13;20.45;;;19.10;74.60;;;;;;5026634;28;20387;-74
2023/08/17 06:49:22;;;;;;;29.08;21.05;;;19.10;75.00;;;;;;5032508;28;20914;-73
2023/08/17 06:51:48;;;;;;;32.85;21.23;;;19.20;73.70;;;;;;4995339;28;20476;-74
2023/08/17 06:54:13;;;;;;;29.20;20.10;;;19.30;72.20;;;;;;5011956;28;20392;-73
2023/08/17 06:56:39;;;;;;;30.50;20.13;;;19.30;70.10;;;;;;5014155;28;20479;-73
2023/08/17 06:59:04;;;;;;;34.30;20.92;;;19.30;68.50;;;;;;5013842;28;20401;-74
2023/08/17 07:01:30;;;;;;;27.83;20.27;;;19.40;70.70;;;;;;5013665;28;20407;-73
2023/08/17 07:03:56;;;;;;;26.40;20.80;;;19.40;69.50;;;;;;5021363;28;20899;-74
2023/08/17 07:06:23;;;;;;;26.98;18.65;;;19.50;70.00;;;;;;5015984;28;20477;-72
2023/08/17 07:08:48;;;;;;;30.77;19.67;;;19.60;68.00;;;;;;5028743;28;20503;-73
2023/08/17 07:11:14;;;;;;;25.73;19.45;;;19.60;67.30;;;;;;5023481;28;20537;-74
2023/08/17 07:13:39;;;;;;;31.20;20.00;;;19.60;69.00;;;;;;5013112;28;20430;-76
2023/08/17 07:16:05;;;;;;;28.02;19.60;;;19.60;69.50;;;;;;5013714;28;20410;-73
2023/08/17 07:18:30;;;;;;;30.23;19.90;;;19.70;68.10;;;;;;5031142;28;20453;-74
2023/08/17 07:20:56;;;;;;;32.87;19.90;;;19.80;65.40;;;;;;5031612;28;20407;-73
2023/08/17 07:23:22;;;;;;;35.87;19.00;;;20.00;65.20;;;;;;5032383;28;20465;-76
2023/08/17 07:25:48;;;;;;;30.87;19.67;;;20.10;66.50;;;;;;5031583;28;20390;-74
2023/08/17 07:28:15;;;;;;;26.95;18.40;;;20.40;59.80;;;;;;5021875;28;20397;-75
2023/08/17 07:30:41;;;;;;;26.52;18.88;;;20.40;57.30;;;;;;5031023;28;20387;-74
2023/08/17 07:33:07;;;;;;;28.08;19.42;;;20.20;60.30;;;;;;5030923;28;20437;-74
2023/08/17 07:35:32;;;;;;;29.27;18.70;;;20.30;60.70;;;;;;5030925;28;20395;-74
2023/08/17 07:37:58;;;;;;;29.73;20.20;;;20.30;60.60;;;;;;5012642;28;20961;-74
2023/08/17 07:40:23;;;;;;;33.53;20.77;;;20.40;60.70;;;;;;5030362;28;20836;-72
2023/08/17 07:42:49;;;;;;;32.67;20.33;;;20.10;61.90;;;;;;5030647;28;20371;-74
2023/08/17 07:45:14;;;;;;;35.80;21.67;;;19.90;63.30;;;;;;5031216;28;20387;-74
2023/08/17 07:47:40;;;;;;;35.50;22.50;;;19.80;66.80;;;;;;5030933;28;20419;-74
2023/08/17 07:50:07;;;;;;;31.80;21.73;;;19.90;67.20;;;;;;5030522;28;20473;-74
2023/08/17 07:52:32;;;;;;;30.77;20.80;;;20.00;67.70;;;;;;5031627;28;20891;-74
2023/08/17 07:54:58;;;;;;;28.35;20.42;;;20.10;63.30;;;;;;5033023;28;20449;-74
2023/08/17 07:57:24;;;;;;;28.80;19.70;;;20.10;64.00;;;;;;5031251;28;20682;-74
2023/08/17 07:59:51;;;;;;;30.93;21.10;;;20.10;61.40;;;;;;5035269;28;20430;-74
2023/08/17 08:02:16;;;;;;;37.85;22.55;;;19.90;64.70;;;;;;5037581;28;20387;-74
2023/08/17 08:04:43;;;;;;;30.02;22.25;;;19.90;65.40;;;;;;5032245;28;20588;-74
2023/08/17 08:07:09;;;;;;;31.03;22.03;;;20.00;64.30;;;;;;5034387;28;20474;-74
2023/08/17 08:09:35;;;;;;;30.00;19.38;;;20.10;64.80;;;;;;5033529;28;20481;-74
2023/08/17 08:12:00;;;;;;;31.90;20.30;;;19.90;63.80;;;;;;5032799;28;20434;-73
2023/08/17 08:14:26;;;;;;;29.73;18.80;;;19.80;66.30;;;;;;5033528;28;20855;-75
2023/08/17 08:16:52;;;;;;;31.45;20.48;;;19.70;66.20;;;;;;5034767;28;20813;-74
2023/08/17 08:19:17;;;;;;;28.98;19.10;;;19.80;66.50;;;;;;5035951;28;20406;-73
2023/08/17 08:21:43;;;;;;;36.10;21.30;;;19.60;66.10;;;;;;5034153;28;20775;-74
2023/08/17 08:24:08;;;;;;;34.77;21.20;;;19.40;70.20;;;;;;5034185;28;20379;-74
2023/08/17 08:26:34;;;;;;;34.80;21.70;;;19.20;72.10;;;;;;5032742;28;20453;-74
2023/08/17 08:29:00;;;;;;;29.17;20.13;;;19.10;73.70;;;;;;5039043;28;20775;-74
2023/08/17 08:31:25;;;;;;;27.98;19.13;;;19.40;74.70;;;;;;5035090;28;20433;-73
2023/08/17 08:33:52;;;;;;;28.23;20.27;;;19.60;68.00;;;;;;5034195;28;20425;-73
2023/08/17 08:36:18;;;;;;;30.83;20.25;;;19.70;67.30;;;;;;5031925;28;20444;-74
2023/08/17 08:38:44;;;;;;;33.03;21.77;;;19.60;71.00;;;;;;5031783;28;20898;-74
2023/08/17 08:41:11;;;;;;;32.03;20.48;;;19.80;69.80;;;;;;5031585;28;20442;-73
2023/08/17 08:43:37;;;;;;;32.40;20.00;;;20.00;63.40;;;;;;5033901;28;20429;-75
2023/08/17 08:46:04;;;;;;;30.65;19.70;;;20.20;62.90;;;;;;5013835;28;20753;-74
2023/08/17 08:48:31;;;;;;;29.70;19.40;;;20.30;60.30;;;;;;5013652;28;20877;-74
2023/08/17 08:51:00;;;;;;;26.95;19.35;;;20.40;59.80;;;;;;5025393;28;20403;-74
2023/08/17 08:53:37;;;;;;;25.63;19.52;;;20.40;58.50;;;;;;5032610;28;20402;-74
2023/08/17 08:56:03;;;;;;;34.13;20.33;;;20.30;60.10;;;;;;5030586;28;20399;-74
2023/08/17 08:58:31;;;;;;;29.37;20.20;;;20.20;60.30;;;;;;5029589;28;20867;-74
2023/08/17 09:00:58;;;;;;;31.77;22.00;;;20.20;60.40;;;;;;5033389;28;20934;-74
2023/08/17 09:03:26;;;;;;;31.80;21.35;;;20.00;63.00;;;;;;5008625;28;20403;-74
2023/08/17 09:05:52;;;;;;;34.83;21.85;;;20.10;61.40;;;;;;5014834;28;20400;-74
2023/08/17 09:08:23;;;;;;;31.47;21.20;;;20.10;61.30;;;;;;5010849;28;20392;-75
2023/08/17 09:10:49;;;;;;;35.08;22.42;;;20.20;60.70;;;;;;4992218;28;20424;-75
2023/08/17 09:13:14;;;;;;;31.85;21.05;;;20.10;61.40;;;;;;5011100;28;20455;-75
2023/08/17 09:15:40;;;;;;;31.60;21.70;;;20.20;61.00;;;;;;5012159;28;20907;-75
2023/08/17 09:18:09;;;;;;;35.08;22.27;;;20.20;60.60;;;;;;5029268;28;20462;-76
2023/08/17 09:20:44;;;;;;;33.28;23.08;;;20.30;59.50;;;;;;5020919;28;20412;-75
2023/08/17 09:23:19;;;;;;;33.75;23.20;;;20.20;59.50;;;;;;5021507;28;20484;-75
2023/08/17 09:25:46;;;;;;;36.45;23.58;;;20.30;59.70;;;;;;5024789;28;20496;-76
2023/08/17 09:28:14;;;;;;;34.03;22.27;;;20.30;58.20;;;;;;5010064;28;20399;-75
2023/08/17 09:31:03;;;;;;;31.23;22.30;;;20.30;59.80;;;;;;5017354;28;20402;-74
2023/08/17 09:33:32;;;;;;;29.27;21.47;;;20.40;57.90;;;;;;5027339;28;20402;-74
2023/08/17 09:35:59;;;;;;;30.35;20.52;;;20.60;57.90;;;;;;5013081;28;20486;-75
2023/08/17 09:38:25;;;;;;;27.63;19.58;;;20.60;55.50;;;;;;5020398;28;20385;-74
2023/08/17 09:40:51;;;;;;;31.02;18.75;;;20.70;55.90;;;;;;4991229;28;20451;-75
2023/08/17 09:43:18;;;;;;;22.52;16.88;;;20.90;54.60;;;;;;5009583;28;20413;-73
2023/08/17 09:45:47;;;;;;;22.92;16.80;;;21.00;53.00;;;;;;5011086;28;20401;-74
2023/08/17 09:48:19;;;;;;;24.85;17.30;;;21.20;52.60;;;;;;5009964;28;20389;-74
2023/08/17 09:50:47;;;;;;;23.53;17.37;;;21.30;50.70;;;;;;5018401;28;20872;-75
2023/08/17 09:53:19;;;;;;;24.98;18.00;;;21.30;50.70;;;;;;5028638;28;20485;-75
2023/08/17 09:55:46;;;;;;;24.10;17.80;;;21.40;51.60;;;;;;5029156;28;20892;-75
2023/08/17 09:58:15;;;;;;;22.58;17.15;;;21.70;50.90;;;;;;5028226;28;20402;-74
2023/08/17 10:00:49;;;;;;;24.80;16.08;;;21.90;47.00;;;;;;5028132;28;20418;-73
2023/08/17 10:03:15;;;;;;;23.08;16.10;;;21.70;47.50;;;;;;5006743;28;20409;-75
2023/08/17 10:05:43;;;;;;;25.08;17.25;;;21.50;48.20;;;;;;5011692;28;20478;-74
2023/08/17 10:08:11;;;;;;;26.02;17.17;;;21.40;49.30;;;;;;5027674;28;20391;-74
2023/08/17 10:10:42;;;;;;;23.90;16.75;;;21.60;49.00;;;;;;5026648;28;20427;-75
2023/08/17 10:13:26;;;;;;;24.25;16.10;;;21.80;49.40;;;;;;5027888;28;20772;-76
2023/08/17 10:16:02;;;;;;;23.00;16.30;;;22.20;46.90;;;;;;5027299;28;20414;-75
2023/08/17 10:18:31;;;;;;;26.30;16.67;;;22.20;45.70;;;;;;5018088;28;20420;-75
2023/08/17 10:21:12;;;;;;;25.48;17.17;;;22.30;46.10;;;;;;5009501;28;20499;-75
2023/08/17 10:23:39;;;;;;;33.55;20.33;;;22.20;45.90;;;;;;5027927;28;20466;-75
2023/08/17 10:26:07;;;;;;;33.70;21.48;;;22.30;45.00;;;;;;5025859;28;20379;-75
2023/08/17 10:28:34;;;;;;;31.15;20.55;;;22.30;45.00;;;;;;5028032;28;20403;-75
2023/08/17 10:31:00;;;;;;;33.60;20.90;;;22.50;44.90;;;;;;5031906;28;20387;-74
2023/08/17 10:33:27;;;;;;;39.55;21.50;;;22.70;43.40;;;;;;5031946;28;20380;-74
2023/08/17 10:35:53;;;;;;;35.38;22.05;;;22.60;43.10;;;;;;5031089;28;20403;-74
2023/08/17 10:38:19;;;;;;;37.90;23.00;;;22.40;43.80;;;;;;5032031;28;20422;-73
2023/08/17 10:40:45;;;;;;;35.00;23.00;;;22.10;45.30;;;;;;5031712;28;20864;-74
2023/08/17 10:43:12;;;;;;;33.45;23.13;;;22.30;45.70;;;;;;5033736;28;20761;-76
2023/08/17 10:45:38;;;;;;;33.10;21.80;;;22.60;44.30;;;;;;5008269;28;20437;-74
2023/08/17 10:48:08;;;;;;;32.67;21.52;;;22.90;42.70;;;;;;5012359;28;20385;-75
2023/08/17 10:50:34;;;;;;;24.88;19.30;;;23.30;41.70;;;;;;4994574;28;20411;-75
2023/08/17 10:53:16;;;;;;;25.08;18.98;;;23.50;40.50;;;;;;5016487;28;20410;-74
2023/08/17 10:55:50;;;;;;;26.48;19.20;;;23.60;39.50;;;;;;5032211;28;20748;-75
2023/08/17 10:58:16;;;;;;;25.88;17.70;;;23.70;39.10;;;;;;5011540;28;20917;-75
2023/08/17 11:00:54;;;;;;;28.60;18.90;;;23.80;37.90;;;;;;5011280;28;20414;-75
2023/08/17 11:03:23;;;;;;;28.80;18.60;;;23.80;38.30;;;;;;5031720;28;20387;-75
2023/08/17 11:05:55;;;;;;;27.00;17.38;;;23.60;39.80;;;;;;5031015;28;20818;-75
2023/08/17 11:08:50;;;;;;;25.02;18.10;;;23.70;39.10;;;;;;5030781;28;20383;-76
2023/08/17 11:11:16;;;;;;;23.48;17.00;;;23.70;40.00;;;;;;5019313;28;20884;-75
2023/08/17 11:13:44;;;;;;;19.95;16.20;;;23.60;39.80;;;;;;5019134;28;20395;-76
2023/08/17 11:16:11;;;;;;;22.77;15.80;;;23.90;38.40;;;;;;5031004;28;20400;-75
2023/08/17 11:18:41;;;;;;;20.10;14.87;;;23.90;38.60;;;;;;5030379;28;20399;-75
2023/08/17 11:21:08;;;;;;;18.20;13.30;;;24.20;36.90;;;;;;5018265;28;20409;-75
2023/08/17 11:23:38;;;;;;;16.95;12.80;;;24.50;36.00;;;;;;5013104;28;20491;-75
2023/08/17 11:26:04;;;;;;;17.55;13.20;;;24.80;35.90;;;;;;5015886;28;20432;-75
2023/08/17 11:28:38;;;;;;;17.83;12.52;;;25.40;32.90;;;;;;5035336;28;20886;-75
2023/08/17 11:31:06;;;;;;;16.50;13.13;;;25.70;32.30;;;;;;5033193;28;20387;-75
2023/08/17 11:33:33;;;;;;;20.90;13.27;;;25.80;31.20;;;;;;5015262;28;20899;-75
2023/08/17 11:36:02;;;;;;;19.90;12.88;;;25.40;32.70;;;;;;5031897;28;20498;-74
2023/08/17 11:38:34;;;;;;;21.33;13.00;;;25.30;33.50;;;;;;5033188;28;20450;-75
2023/08/17 11:41:01;;;;;;;22.57;12.70;;;24.90;35.10;;;;;;5014877;28;20486;-74
2023/08/17 11:43:30;;;;;;;19.25;12.25;;;24.60;35.40;;;;;;5015479;28;20462;-75
2023/08/17 11:45:56;;;;;;;16.03;11.27;;;25.20;33.90;;;;;;5015370;28;20379;-74
2023/08/17 11:48:26;;;;;;;15.13;11.20;;;25.60;31.70;;;;;;5032591;28;20700;-75
2023/08/17 11:50:52;;;;;;;13.27;10.00;;;25.90;32.00;;;;;;4999775;28;20403;-75
2023/08/17 11:53:18;;;;;;;15.65;10.30;;;25.70;30.40;;;;;;5032614;28;20390;-74
2023/08/17 11:55:44;;;;;;;12.57;10.13;;;25.30;32.20;;;;;;5032398;28;20907;-74
2023/08/17 11:58:09;;;;;;;15.43;10.63;;;25.20;32.60;;;;;;5014699;28;20419;-74
2023/08/17 12:00:39;;;;;;;15.83;12.87;;;25.10;33.30;;;;;;5032180;28;20419;-74
2023/08/17 12:03:05;;;;;;;15.90;11.55;;;24.50;35.30;;;;;;5032301;28;20383;-74
2023/08/17 12:05:32;;;;;;;17.25;12.07;;;24.30;36.70;;;;;;5014529;28;20490;-75
2023/08/17 12:07:59;;;;;;;14.88;11.07;;;24.50;36.50;;;;;;5014542;28;20391;-74
2023/08/17 12:10:29;;;;;;;15.18;11.75;;;24.50;36.60;;;;;;5032527;28;20402;-74
2023/08/17 12:13:01;;;;;;;19.42;12.70;;;24.50;36.60;;;;;;5014345;28;20421;-75
2023/08/17 12:15:46;;;;;;;13.57;11.80;;;24.20;37.30;;;;;;5031684;28;20474;-74
2023/08/17 12:18:15;;;;;;;16.30;12.60;;;24.10;37.60;;;;;;5032905;28;20505;-75
2023/08/17 12:20:42;;;;;;;12.95;11.30;;;23.90;38.40;;;;;;5016412;28;20487;-75
2023/08/17 12:23:08;;;;;;;13.90;11.70;;;23.90;39.10;;;;;;5032293;28;20410;-75
2023/08/17 12:25:34;;;;;;;17.52;13.13;;;24.00;38.00;;;;;;5031933;28;20489;-74
2023/08/17 12:28:00;;;;;;;15.33;12.67;;;23.90;37.80;;;;;;5032067;28;20450;-74